sensor_id;sensor_type;location;lat;lon;timestamp;temperature;humidity
65836;SHT30;52595;51.608;7.216;2024-02-21T00:01:25;8.68;93.48
65836;SHT30;52595;51.608;7.216;2024-02-21T00:03:50;8.64;93.81
65836;SHT30;52595;51.608;7.216;2024-02-21T00:06:16;8.64;93.83
65836;SHT30;52595;51.608;7.216;2024-02-21T00:08:41;8.68;93.53
65836;SHT30;52595;51.608;7.216;2024-02-21T00:11:07;8.68;93.60
65836;SHT30;52595;51.608;7.216;2024-02-21T00:13:32;8.67;93.75
65836;SHT30;52595;51.608;7.216;2024-02-21T00:15:59;8.64;93.98
65836;SHT30;52595;51.608;7.216;2024-02-21T00:18:25;8.64;93.98
65836;SHT30;52595;51.608;7.216;2024-02-21T00:20:50;8.65;94.14
65836;SHT30;52595;51.608;7.216;2024-02-21T00:23:15;8.64;94.10
65836;SHT30;52595;51.608;7.216;2024-02-21T00:25:41;8.61;94.18
65836;SHT30;52595;51.608;7.216;2024-02-21T00:28:06;8.61;94.29
65836;SHT30;52595;51.608;7.216;2024-02-21T00:30:31;8.64;94.28
65836;SHT30;52595;51.608;7.216;2024-02-21T00:32:57;8.61;94.24
65836;SHT30;52595;51.608;7.216;2024-02-21T00:35:24;8.64;94.29
65836;SHT30;52595;51.608;7.216;2024-02-21T00:37:50;8.61;94.30
65836;SHT30;52595;51.608;7.216;2024-02-21T00:40:16;8.59;94.49
65836;SHT30;52595;51.608;7.216;2024-02-21T00:42:45;8.59;94.57
65836;SHT30;52595;51.608;7.216;2024-02-21T00:45:11;8.61;94.58
65836;SHT30;52595;51.608;7.216;2024-02-21T00:47:36;8.57;94.76
65836;SHT30;52595;51.608;7.216;2024-02-21T00:50:02;8.58;94.53
65836;SHT30;52595;51.608;7.216;2024-02-21T00:52:27;8.58;94.72
65836;SHT30;52595;51.608;7.216;2024-02-21T00:54:52;8.58;94.60
65836;SHT30;52595;51.608;7.216;2024-02-21T00:57:18;8.59;94.58
65836;SHT30;52595;51.608;7.216;2024-02-21T00:59:43;8.58;94.56
65836;SHT30;52595;51.608;7.216;2024-02-21T01:02:09;8.57;94.59
65836;SHT30;52595;51.608;7.216;2024-02-21T01:04:34;8.61;94.53
65836;SHT30;52595;51.608;7.216;2024-02-21T01:07:00;8.57;94.56
65836;SHT30;52595;51.608;7.216;2024-02-21T01:09:25;8.59;94.49
65836;SHT30;52595;51.608;7.216;2024-02-21T01:11:51;8.59;94.45
65836;SHT30;52595;51.608;7.216;2024-02-21T01:14:16;8.62;94.21
65836;SHT30;52595;51.608;7.216;2024-02-21T01:16:41;8.62;94.28
65836;SHT30;52595;51.608;7.216;2024-02-21T01:19:08;8.57;94.56
65836;SHT30;52595;51.608;7.216;2024-02-21T01:21:33;8.64;94.11
65836;SHT30;52595;51.608;7.216;2024-02-21T01:23:59;8.61;94.23
65836;SHT30;52595;51.608;7.216;2024-02-21T01:26:24;8.61;94.18
65836;SHT30;52595;51.608;7.216;2024-02-21T01:28:49;8.62;94.27
65836;SHT30;52595;51.608;7.216;2024-02-21T01:31:15;8.58;94.37
65836;SHT30;52595;51.608;7.216;2024-02-21T01:33:40;8.67;93.85
65836;SHT30;52595;51.608;7.216;2024-02-21T01:36:06;8.61;94.14
65836;SHT30;52595;51.608;7.216;2024-02-21T01:38:32;8.67;94.05
65836;SHT30;52595;51.608;7.216;2024-02-21T01:40:58;8.67;94.02
65836;SHT30;52595;51.608;7.216;2024-02-21T01:43:23;8.67;94.01
65836;SHT30;52595;51.608;7.216;2024-02-21T01:45:50;8.71;93.91
65836;SHT30;52595;51.608;7.216;2024-02-21T01:48:18;8.68;94.16
65836;SHT30;52595;51.608;7.216;2024-02-21T01:50:45;8.68;94.08
65836;SHT30;52595;51.608;7.216;2024-02-21T01:53:12;8.67;93.94
65836;SHT30;52595;51.608;7.216;2024-02-21T01:55:43;8.67;94.08
65836;SHT30;52595;51.608;7.216;2024-02-21T01:58:09;8.64;94.36
65836;SHT30;52595;51.608;7.216;2024-02-21T02:00:35;8.68;93.99
65836;SHT30;52595;51.608;7.216;2024-02-21T02:03:02;8.65;94.04
65836;SHT30;52595;51.608;7.216;2024-02-21T02:05:28;8.65;94.02
65836;SHT30;52595;51.608;7.216;2024-02-21T02:07:53;8.65;94.13
65836;SHT30;52595;51.608;7.216;2024-02-21T02:10:19;8.61;94.30
65836;SHT30;52595;51.608;7.216;2024-02-21T02:12:44;8.62;94.22
65836;SHT30;52595;51.608;7.216;2024-02-21T02:15:10;8.61;94.20
65836;SHT30;52595;51.608;7.216;2024-02-21T02:17:35;8.67;93.92
65836;SHT30;52595;51.608;7.216;2024-02-21T02:20:01;8.65;94.20
65836;SHT30;52595;51.608;7.216;2024-02-21T02:22:31;8.64;94.10
65836;SHT30;52595;51.608;7.216;2024-02-21T02:24:57;8.58;94.28
65836;SHT30;52595;51.608;7.216;2024-02-21T02:27:23;8.58;94.37
65836;SHT30;52595;51.608;7.216;2024-02-21T02:29:49;8.55;94.47
65836;SHT30;52595;51.608;7.216;2024-02-21T02:32:15;8.51;94.57
65836;SHT30;52595;51.608;7.216;2024-02-21T02:34:41;8.51;94.59
65836;SHT30;52595;51.608;7.216;2024-02-21T02:37:06;8.48;94.56
65836;SHT30;52595;51.608;7.216;2024-02-21T02:39:31;8.44;94.73
65836;SHT30;52595;51.608;7.216;2024-02-21T02:41:57;8.54;94.39
65836;SHT30;52595;51.608;7.216;2024-02-21T02:44:22;8.47;94.61
65836;SHT30;52595;51.608;7.216;2024-02-21T02:46:47;8.47;94.58
65836;SHT30;52595;51.608;7.216;2024-02-21T02:49:13;8.44;94.76
65836;SHT30;52595;51.608;7.216;2024-02-21T02:51:42;8.37;95.11
65836;SHT30;52595;51.608;7.216;2024-02-21T02:54:08;8.40;95.03
65836;SHT30;52595;51.608;7.216;2024-02-21T02:56:34;8.42;94.85
65836;SHT30;52595;51.608;7.216;2024-02-21T02:58:59;8.40;95.12
65836;SHT30;52595;51.608;7.216;2024-02-21T03:01:24;8.42;94.94
65836;SHT30;52595;51.608;7.216;2024-02-21T03:03:50;8.40;95.01
65836;SHT30;52595;51.608;7.216;2024-02-21T03:06:15;8.38;95.15
65836;SHT30;52595;51.608;7.216;2024-02-21T03:08:41;8.40;95.05
65836;SHT30;52595;51.608;7.216;2024-02-21T03:11:06;8.40;95.19
65836;SHT30;52595;51.608;7.216;2024-02-21T03:13:31;8.42;95.10
65836;SHT30;52595;51.608;7.216;2024-02-21T03:15:57;8.41;95.23
65836;SHT30;52595;51.608;7.216;2024-02-21T03:18:22;8.42;95.25
65836;SHT30;52595;51.608;7.216;2024-02-21T03:20:47;8.42;95.28
65836;SHT30;52595;51.608;7.216;2024-02-21T03:23:13;8.38;95.29
65836;SHT30;52595;51.608;7.216;2024-02-21T03:25:38;8.38;95.40
65836;SHT30;52595;51.608;7.216;2024-02-21T03:28:04;8.37;95.36
65836;SHT30;52595;51.608;7.216;2024-02-21T03:30:29;8.42;95.24
65836;SHT30;52595;51.608;7.216;2024-02-21T03:32:55;8.45;95.22
65836;SHT30;52595;51.608;7.216;2024-02-21T03:35:20;8.40;95.33
65836;SHT30;52595;51.608;7.216;2024-02-21T03:37:45;8.42;95.18
65836;SHT30;52595;51.608;7.216;2024-02-21T03:40:11;8.41;95.27
65836;SHT30;52595;51.608;7.216;2024-02-21T03:42:37;8.45;95.13
65836;SHT30;52595;51.608;7.216;2024-02-21T03:45:03;8.42;95.19
65836;SHT30;52595;51.608;7.216;2024-02-21T03:47:29;8.44;95.25
65836;SHT30;52595;51.608;7.216;2024-02-21T03:49:54;8.44;95.27
65836;SHT30;52595;51.608;7.216;2024-02-21T03:52:20;8.49;94.77
65836;SHT30;52595;51.608;7.216;2024-02-21T03:54:45;8.45;95.03
65836;SHT30;52595;51.608;7.216;2024-02-21T03:57:10;8.48;94.98
65836;SHT30;52595;51.608;7.216;2024-02-21T03:59:36;8.47;95.06
65836;SHT30;52595;51.608;7.216;2024-02-21T04:02:01;8.49;94.85
65836;SHT30;52595;51.608;7.216;2024-02-21T04:04:29;8.47;94.99
65836;SHT30;52595;51.608;7.216;2024-02-21T04:06:54;8.49;94.96
65836;SHT30;52595;51.608;7.216;2024-02-21T04:09:20;8.48;94.89
65836;SHT30;52595;51.608;7.216;2024-02-21T04:11:45;8.48;94.87
65836;SHT30;52595;51.608;7.216;2024-02-21T04:14:10;8.49;94.95
65836;SHT30;52595;51.608;7.216;2024-02-21T04:16:39;8.48;94.93
65836;SHT30;52595;51.608;7.216;2024-02-21T04:19:04;8.48;94.95
65836;SHT30;52595;51.608;7.216;2024-02-21T04:21:30;8.45;95.16
65836;SHT30;52595;51.608;7.216;2024-02-21T04:23:55;8.45;94.87
65836;SHT30;52595;51.608;7.216;2024-02-21T04:26:20;8.44;94.99
65836;SHT30;52595;51.608;7.216;2024-02-21T04:28:46;8.44;95.15
65836;SHT30;52595;51.608;7.216;2024-02-21T04:31:12;8.42;94.93
65836;SHT30;52595;51.608;7.216;2024-02-21T04:33:37;8.40;94.94
65836;SHT30;52595;51.608;7.216;2024-02-21T04:36:03;8.41;94.94
65836;SHT30;52595;51.608;7.216;2024-02-21T04:38:28;8.38;95.17
65836;SHT30;52595;51.608;7.216;2024-02-21T04:40:55;8.34;95.16
65836;SHT30;52595;51.608;7.216;2024-02-21T04:43:24;8.37;95.10
65836;SHT30;52595;51.608;7.216;2024-02-21T04:45:49;8.38;95.19
65836;SHT30;52595;51.608;7.216;2024-02-21T04:48:14;8.36;95.15
65836;SHT30;52595;51.608;7.216;2024-02-21T04:50:40;8.37;95.03
65836;SHT30;52595;51.608;7.216;2024-02-21T04:53:06;8.37;95.11
65836;SHT30;52595;51.608;7.216;2024-02-21T04:55:31;8.42;94.68
65836;SHT30;52595;51.608;7.216;2024-02-21T04:57:57;8.41;94.79
65836;SHT30;52595;51.608;7.216;2024-02-21T05:00:22;8.40;94.71
65836;SHT30;52595;51.608;7.216;2024-02-21T05:02:48;8.44;94.44
65836;SHT30;52595;51.608;7.216;2024-02-21T05:05:13;8.47;94.00
65836;SHT30;52595;51.608;7.216;2024-02-21T05:07:40;8.48;94.03
65836;SHT30;52595;51.608;7.216;2024-02-21T05:10:07;8.45;94.06
65836;SHT30;52595;51.608;7.216;2024-02-21T05:12:32;8.48;93.96
65836;SHT30;52595;51.608;7.216;2024-02-21T05:14:58;8.47;93.96
65836;SHT30;52595;51.608;7.216;2024-02-21T05:17:23;8.45;93.83
65836;SHT30;52595;51.608;7.216;2024-02-21T05:19:48;8.44;94.12
65836;SHT30;52595;51.608;7.216;2024-02-21T05:22:14;8.42;94.11
65836;SHT30;52595;51.608;7.216;2024-02-21T05:24:39;8.41;94.02
65836;SHT30;52595;51.608;7.216;2024-02-21T05:27:05;8.44;93.44
65836;SHT30;52595;51.608;7.216;2024-02-21T05:29:30;8.51;92.98
65836;SHT30;52595;51.608;7.216;2024-02-21T05:31:56;8.51;92.72
65836;SHT30;52595;51.608;7.216;2024-02-21T05:34:25;8.52;92.61
65836;SHT30;52595;51.608;7.216;2024-02-21T05:36:51;8.52;92.61
65836;SHT30;52595;51.608;7.216;2024-02-21T05:39:17;8.55;92.30
65836;SHT30;52595;51.608;7.216;2024-02-21T05:41:42;8.55;92.30
65836;SHT30;52595;51.608;7.216;2024-02-21T05:44:08;8.54;92.12
65836;SHT30;52595;51.608;7.216;2024-02-21T05:46:33;8.54;92.08
65836;SHT30;52595;51.608;7.216;2024-02-21T05:48:59;8.54;92.25
65836;SHT30;52595;51.608;7.216;2024-02-21T05:51:24;8.52;92.16
65836;SHT30;52595;51.608;7.216;2024-02-21T05:53:49;8.54;91.98
65836;SHT30;52595;51.608;7.216;2024-02-21T05:56:15;8.57;91.72
65836;SHT30;52595;51.608;7.216;2024-02-21T05:58:40;8.58;91.55
65836;SHT30;52595;51.608;7.216;2024-02-21T06:01:07;8.61;91.58
65836;SHT30;52595;51.608;7.216;2024-02-21T06:03:33;8.59;91.39
65836;SHT30;52595;51.608;7.216;2024-02-21T06:05:59;8.62;91.09
65836;SHT30;52595;51.608;7.216;2024-02-21T06:08:25;8.58;91.31
65836;SHT30;52595;51.608;7.216;2024-02-21T06:10:50;8.58;91.48
65836;SHT30;52595;51.608;7.216;2024-02-21T06:13:20;8.57;91.31
65836;SHT30;52595;51.608;7.216;2024-02-21T06:15:47;8.58;91.30
65836;SHT30;52595;51.608;7.216;2024-02-21T06:18:12;8.61;91.15
65836;SHT30;52595;51.608;7.216;2024-02-21T06:20:37;8.65;90.96
65836;SHT30;52595;51.608;7.216;2024-02-21T06:23:05;8.67;90.79
65836;SHT30;52595;51.608;7.216;2024-02-21T06:25:31;8.67;90.89
65836;SHT30;52595;51.608;7.216;2024-02-21T06:27:56;8.67;90.91
65836;SHT30;52595;51.608;7.216;2024-02-21T06:30:21;8.68;90.82
65836;SHT30;52595;51.608;7.216;2024-02-21T06:32:47;8.64;91.03
65836;SHT30;52595;51.608;7.216;2024-02-21T06:35:12;8.59;91.14
65836;SHT30;52595;51.608;7.216;2024-02-21T06:37:38;8.67;90.85
65836;SHT30;52595;51.608;7.216;2024-02-21T06:40:04;8.69;90.77
65836;SHT30;52595;51.608;7.216;2024-02-21T06:42:29;8.67;90.85
65836;SHT30;52595;51.608;7.216;2024-02-21T06:44:55;8.65;90.88
65836;SHT30;52595;51.608;7.216;2024-02-21T06:47:21;8.69;90.91
65836;SHT30;52595;51.608;7.216;2024-02-21T06:49:50;8.65;90.90
65836;SHT30;52595;51.608;7.216;2024-02-21T06:52:19;8.73;90.72
65836;SHT30;52595;51.608;7.216;2024-02-21T06:54:46;8.73;90.57
65836;SHT30;52595;51.608;7.216;2024-02-21T06:57:13;8.72;90.68
65836;SHT30;52595;51.608;7.216;2024-02-21T06:59:40;8.73;90.65
65836;SHT30;52595;51.608;7.216;2024-02-21T07:02:05;8.73;90.53
65836;SHT30;52595;51.608;7.216;2024-02-21T07:04:30;8.72;91.00
65836;SHT30;52595;51.608;7.216;2024-02-21T07:06:56;8.73;90.41
65836;SHT30;52595;51.608;7.216;2024-02-21T07:09:21;8.78;90.45
65836;SHT30;52595;51.608;7.216;2024-02-21T07:11:46;8.75;90.59
65836;SHT30;52595;51.608;7.216;2024-02-21T07:14:14;8.79;90.44
65836;SHT30;52595;51.608;7.216;2024-02-21T07:16:39;8.82;90.33
65836;SHT30;52595;51.608;7.216;2024-02-21T07:19:05;8.81;90.32
65836;SHT30;52595;51.608;7.216;2024-02-21T07:21:31;8.82;90.13
65836;SHT30;52595;51.608;7.216;2024-02-21T07:23:56;8.83;90.05
65836;SHT30;52595;51.608;7.216;2024-02-21T07:26:21;8.85;90.26
65836;SHT30;52595;51.608;7.216;2024-02-21T07:28:47;8.88;90.00
65836;SHT30;52595;51.608;7.216;2024-02-21T07:31:12;8.88;89.70
65836;SHT30;52595;51.608;7.216;2024-02-21T07:33:37;8.91;89.84
65836;SHT30;52595;51.608;7.216;2024-02-21T07:36:10;8.92;89.63
65836;SHT30;52595;51.608;7.216;2024-02-21T07:38:36;8.91;89.57
65836;SHT30;52595;51.608;7.216;2024-02-21T07:41:02;8.93;89.80
65836;SHT30;52595;51.608;7.216;2024-02-21T07:43:29;8.95;89.70
65836;SHT30;52595;51.608;7.216;2024-02-21T07:45:55;8.98;89.81
65836;SHT30;52595;51.608;7.216;2024-02-21T07:48:21;8.98;89.45
65836;SHT30;52595;51.608;7.216;2024-02-21T07:50:49;8.99;89.51
65836;SHT30;52595;51.608;7.216;2024-02-21T07:53:15;9.01;89.13
65836;SHT30;52595;51.608;7.216;2024-02-21T07:55:40;9.01;89.03
65836;SHT30;52595;51.608;7.216;2024-02-21T07:58:05;9.02;89.29
65836;SHT30;52595;51.608;7.216;2024-02-21T08:00:31;9.02;89.06
65836;SHT30;52595;51.608;7.216;2024-02-21T08:02:57;9.08;88.67
65836;SHT30;52595;51.608;7.216;2024-02-21T08:05:22;9.15;88.76
65836;SHT30;52595;51.608;7.216;2024-02-21T08:07:48;9.09;88.49
65836;SHT30;52595;51.608;7.216;2024-02-21T08:10:13;9.15;88.48
65836;SHT30;52595;51.608;7.216;2024-02-21T08:12:39;9.15;88.45
65836;SHT30;52595;51.608;7.216;2024-02-21T08:15:04;9.15;88.59
65836;SHT30;52595;51.608;7.216;2024-02-21T08:17:30;9.18;88.72
65836;SHT30;52595;51.608;7.216;2024-02-21T08:19:56;9.18;88.66
65836;SHT30;52595;51.608;7.216;2024-02-21T08:22:21;9.16;88.58
65836;SHT30;52595;51.608;7.216;2024-02-21T08:24:47;9.22;88.38
65836;SHT30;52595;51.608;7.216;2024-02-21T08:27:12;9.23;88.37
65836;SHT30;52595;51.608;7.216;2024-02-21T08:29:37;9.24;88.27
65836;SHT30;52595;51.608;7.216;2024-02-21T08:32:03;9.32;87.97
65836;SHT30;52595;51.608;7.216;2024-02-21T08:34:28;9.36;87.90
65836;SHT30;52595;51.608;7.216;2024-02-21T08:36:55;9.40;87.71
65836;SHT30;52595;51.608;7.216;2024-02-21T08:39:20;9.40;87.85
65836;SHT30;52595;51.608;7.216;2024-02-21T08:41:46;9.40;87.54
65836;SHT30;52595;51.608;7.216;2024-02-21T08:44:11;9.37;87.33
65836;SHT30;52595;51.608;7.216;2024-02-21T08:46:37;9.33;87.25
65836;SHT30;52595;51.608;7.216;2024-02-21T08:49:05;9.40;87.62
65836;SHT30;52595;51.608;7.216;2024-02-21T08:51:31;9.50;87.41
65836;SHT30;52595;51.608;7.216;2024-02-21T08:53:56;9.47;87.16
65836;SHT30;52595;51.608;7.216;2024-02-21T08:56:21;9.53;87.18
65836;SHT30;52595;51.608;7.216;2024-02-21T08:58:47;9.56;87.04
65836;SHT30;52595;51.608;7.216;2024-02-21T09:01:12;9.44;86.87
65836;SHT30;52595;51.608;7.216;2024-02-21T09:03:38;9.43;87.14
65836;SHT30;52595;51.608;7.216;2024-02-21T09:06:05;9.56;87.44
65836;SHT30;52595;51.608;7.216;2024-02-21T09:08:31;9.60;87.32
65836;SHT30;52595;51.608;7.216;2024-02-21T09:10:56;9.51;87.89
65836;SHT30;52595;51.608;7.216;2024-02-21T09:13:22;9.53;88.03
65836;SHT30;52595;51.608;7.216;2024-02-21T09:15:48;9.46;88.63
65836;SHT30;52595;51.608;7.216;2024-02-21T09:18:15;9.40;88.21
65836;SHT30;52595;51.608;7.216;2024-02-21T09:20:40;9.43;88.22
65836;SHT30;52595;51.608;7.216;2024-02-21T09:23:06;9.36;88.34
65836;SHT30;52595;51.608;7.216;2024-02-21T09:25:31;9.30;88.21
65836;SHT30;52595;51.608;7.216;2024-02-21T09:27:57;9.18;88.25
65836;SHT30;52595;51.608;7.216;2024-02-21T09:30:23;9.16;88.46
65836;SHT30;52595;51.608;7.216;2024-02-21T09:32:49;9.15;88.64
65836;SHT30;52595;51.608;7.216;2024-02-21T09:35:14;9.20;88.82
65836;SHT30;52595;51.608;7.216;2024-02-21T09:37:40;8.98;88.38
65836;SHT30;52595;51.608;7.216;2024-02-21T09:40:06;9.06;88.69
65836;SHT30;52595;51.608;7.216;2024-02-21T09:42:39;9.11;88.27
65836;SHT30;52595;51.608;7.216;2024-02-21T09:45:10;9.16;87.90
65836;SHT30;52595;51.608;7.216;2024-02-21T09:50:17;9.34;87.58
65836;SHT30;52595;51.608;7.216;2024-02-21T09:52:44;9.44;86.92
65836;SHT30;52595;51.608;7.216;2024-02-21T09:55:10;9.57;86.60
65836;SHT30;52595;51.608;7.216;2024-02-21T09:57:37;9.47;86.57
65836;SHT30;52595;51.608;7.216;2024-02-21T10:00:04;9.71;86.91
65836;SHT30;52595;51.608;7.216;2024-02-21T10:02:33;9.71;86.03
65836;SHT30;52595;51.608;7.216;2024-02-21T10:04:58;9.95;85.45
65836;SHT30;52595;51.608;7.216;2024-02-21T10:07:24;9.86;85.56
65836;SHT30;52595;51.608;7.216;2024-02-21T10:10:03;9.94;85.20
65836;SHT30;52595;51.608;7.216;2024-02-21T10:12:28;9.74;85.72
65836;SHT30;52595;51.608;7.216;2024-02-21T10:15:05;9.69;85.44
65836;SHT30;52595;51.608;7.216;2024-02-21T10:17:32;9.70;85.76
65836;SHT30;52595;51.608;7.216;2024-02-21T10:20:10;9.73;85.75
65836;SHT30;52595;51.608;7.216;2024-02-21T10:22:37;9.57;86.12
65836;SHT30;52595;51.608;7.216;2024-02-21T10:25:12;9.70;86.21
65836;SHT30;52595;51.608;7.216;2024-02-21T10:27:40;9.71;86.42
65836;SHT30;52595;51.608;7.216;2024-02-21T10:30:13;9.78;86.27
65836;SHT30;52595;51.608;7.216;2024-02-21T10:32:53;9.61;85.88
65836;SHT30;52595;51.608;7.216;2024-02-21T10:35:29;9.64;85.90
65836;SHT30;52595;51.608;7.216;2024-02-21T10:37:59;9.58;86.18
65836;SHT30;52595;51.608;7.216;2024-02-21T10:40:26;9.76;86.32
65836;SHT30;52595;51.608;7.216;2024-02-21T10:42:59;9.91;85.94
65836;SHT30;52595;51.608;7.216;2024-02-21T10:45:35;9.95;85.50
65836;SHT30;52595;51.608;7.216;2024-02-21T10:48:16;9.64;85.90
65836;SHT30;52595;51.608;7.216;2024-02-21T10:50:57;9.67;86.30
65836;SHT30;52595;51.608;7.216;2024-02-21T10:53:53;9.54;86.84
65836;SHT30;52595;51.608;7.216;2024-02-21T10:56:32;9.51;86.49
65836;SHT30;52595;51.608;7.216;2024-02-21T10:59:04;9.51;86.48
65836;SHT30;52595;51.608;7.216;2024-02-21T11:01:30;9.56;86.40
65836;SHT30;52595;51.608;7.216;2024-02-21T11:04:07;9.61;85.99
65836;SHT30;52595;51.608;7.216;2024-02-21T11:06:35;9.66;85.85
65836;SHT30;52595;51.608;7.216;2024-02-21T11:11:33;9.76;85.13
65836;SHT30;52595;51.608;7.216;2024-02-21T11:14:09;9.93;84.88
65836;SHT30;52595;51.608;7.216;2024-02-21T11:16:39;10.04;84.37
65836;SHT30;52595;51.608;7.216;2024-02-21T11:19:09;10.08;83.97
65836;SHT30;52595;51.608;7.216;2024-02-21T11:21:36;10.12;83.86
65836;SHT30;52595;51.608;7.216;2024-02-21T11:24:05;10.29;83.36
65836;SHT30;52595;51.608;7.216;2024-02-21T11:26:31;10.14;83.30
65836;SHT30;52595;51.608;7.216;2024-02-21T11:29:01;10.15;83.23
65836;SHT30;52595;51.608;7.216;2024-02-21T11:31:39;10.09;83.41
65836;SHT30;52595;51.608;7.216;2024-02-21T11:34:07;10.19;83.44
65836;SHT30;52595;51.608;7.216;2024-02-21T11:36:33;9.97;83.33
65836;SHT30;52595;51.608;7.216;2024-02-21T11:39:04;10.08;83.57
65836;SHT30;52595;51.608;7.216;2024-02-21T11:41:31;10.29;82.83
65836;SHT30;52595;51.608;7.216;2024-02-21T11:43:56;10.41;82.57
65836;SHT30;52595;51.608;7.216;2024-02-21T11:46:22;10.41;82.44
65836;SHT30;52595;51.608;7.216;2024-02-21T11:48:48;10.32;82.18
65836;SHT30;52595;51.608;7.216;2024-02-21T11:51:25;10.44;82.17
65836;SHT30;52595;51.608;7.216;2024-02-21T11:53:52;10.55;81.81
65836;SHT30;52595;51.608;7.216;2024-02-21T11:56:19;10.37;81.72
65836;SHT30;52595;51.608;7.216;2024-02-21T11:58:46;10.48;81.59
65836;SHT30;52595;51.608;7.216;2024-02-21T12:01:13;10.38;81.98
65836;SHT30;52595;51.608;7.216;2024-02-21T12:03:38;10.52;81.86
65836;SHT30;52595;51.608;7.216;2024-02-21T12:06:06;10.58;81.61
65836;SHT30;52595;51.608;7.216;2024-02-21T12:08:44;10.53;81.61
65836;SHT30;52595;51.608;7.216;2024-02-21T12:11:20;10.92;81.12
65836;SHT30;52595;51.608;7.216;2024-02-21T12:13:46;11.04;81.17
65836;SHT30;52595;51.608;7.216;2024-02-21T12:16:15;10.88;80.89
65836;SHT30;52595;51.608;7.216;2024-02-21T12:18:41;10.93;80.80
65836;SHT30;52595;51.608;7.216;2024-02-21T12:21:07;10.83;79.76
65836;SHT30;52595;51.608;7.216;2024-02-21T12:23:32;10.84;80.38
65836;SHT30;52595;51.608;7.216;2024-02-21T12:25:59;10.92;80.04
65836;SHT30;52595;51.608;7.216;2024-02-21T12:28:24;10.84;80.52
65836;SHT30;52595;51.608;7.216;2024-02-21T12:30:50;10.90;80.70
65836;SHT30;52595;51.608;7.216;2024-02-21T12:33:15;11.16;80.32
65836;SHT30;52595;51.608;7.216;2024-02-21T12:35:41;11.00;79.44
65836;SHT30;52595;51.608;7.216;2024-02-21T12:38:06;11.26;79.44
65836;SHT30;52595;51.608;7.216;2024-02-21T12:40:31;11.26;78.65
65836;SHT30;52595;51.608;7.216;2024-02-21T12:42:59;10.92;78.47
65836;SHT30;52595;51.608;7.216;2024-02-21T12:45:24;11.17;78.46
65836;SHT30;52595;51.608;7.216;2024-02-21T12:47:50;11.34;77.63
65836;SHT30;52595;51.608;7.216;2024-02-21T12:50:15;11.47;77.16
65836;SHT30;52595;51.608;7.216;2024-02-21T12:52:40;11.50;76.90
65836;SHT30;52595;51.608;7.216;2024-02-21T12:55:06;11.44;77.31
65836;SHT30;52595;51.608;7.216;2024-02-21T12:57:32;11.27;77.47
65836;SHT30;52595;51.608;7.216;2024-02-21T12:59:57;11.61;76.61
65836;SHT30;52595;51.608;7.216;2024-02-21T13:02:22;11.68;76.58
65836;SHT30;52595;51.608;7.216;2024-02-21T13:04:48;11.55;76.47
65836;SHT30;52595;51.608;7.216;2024-02-21T13:07:13;11.61;76.75
65836;SHT30;52595;51.608;7.216;2024-02-21T13:09:39;11.54;76.85
65836;SHT30;52595;51.608;7.216;2024-02-21T13:12:05;11.64;76.17
65836;SHT30;52595;51.608;7.216;2024-02-21T13:14:31;11.75;75.86
65836;SHT30;52595;51.608;7.216;2024-02-21T13:16:58;11.65;75.95
65836;SHT30;52595;51.608;7.216;2024-02-21T13:19:23;11.78;75.43
65836;SHT30;52595;51.608;7.216;2024-02-21T13:21:49;11.74;74.83
65836;SHT30;52595;51.608;7.216;2024-02-21T13:24:14;11.37;74.90
65836;SHT30;52595;51.608;7.216;2024-02-21T13:26:39;11.40;75.93
65836;SHT30;52595;51.608;7.216;2024-02-21T13:29:05;11.50;75.37
65836;SHT30;52595;51.608;7.216;2024-02-21T13:31:30;11.57;75.77
65836;SHT30;52595;51.608;7.216;2024-02-21T13:33:56;11.34;75.54
65836;SHT30;52595;51.608;7.216;2024-02-21T13:36:21;11.43;75.48
65836;SHT30;52595;51.608;7.216;2024-02-21T13:38:46;11.33;75.52
65836;SHT30;52595;51.608;7.216;2024-02-21T13:41:12;11.54;75.11
65836;SHT30;52595;51.608;7.216;2024-02-21T13:43:38;11.60;74.96
65836;SHT30;52595;51.608;7.216;2024-02-21T13:46:03;11.54;75.25
65836;SHT30;52595;51.608;7.216;2024-02-21T13:48:30;11.53;75.38
65836;SHT30;52595;51.608;7.216;2024-02-21T13:50:56;11.44;75.73
65836;SHT30;52595;51.608;7.216;2024-02-21T13:53:21;11.67;75.71
65836;SHT30;52595;51.608;7.216;2024-02-21T13:55:48;11.88;75.36
65836;SHT30;52595;51.608;7.216;2024-02-21T13:58:13;11.89;74.68
65836;SHT30;52595;51.608;7.216;2024-02-21T14:00:39;11.91;74.98
65836;SHT30;52595;51.608;7.216;2024-02-21T14:03:05;11.89;74.66
65836;SHT30;52595;51.608;7.216;2024-02-21T14:05:30;11.82;74.74
65836;SHT30;52595;51.608;7.216;2024-02-21T14:07:55;11.81;74.35
65836;SHT30;52595;51.608;7.216;2024-02-21T14:10:22;11.74;74.63
65836;SHT30;52595;51.608;7.216;2024-02-21T14:12:47;11.78;75.03
65836;SHT30;52595;51.608;7.216;2024-02-21T14:15:15;11.81;75.01
65836;SHT30;52595;51.608;7.216;2024-02-21T14:17:42;11.74;74.96
65836;SHT30;52595;51.608;7.216;2024-02-21T14:20:07;11.73;74.62
65836;SHT30;52595;51.608;7.216;2024-02-21T14:22:33;11.79;74.87
65836;SHT30;52595;51.608;7.216;2024-02-21T14:25:00;11.77;74.45
65836;SHT30;52595;51.608;7.216;2024-02-21T14:27:25;11.92;74.41
65836;SHT30;52595;51.608;7.216;2024-02-21T14:29:50;12.02;74.42
65836;SHT30;52595;51.608;7.216;2024-02-21T14:32:16;11.97;74.30
65836;SHT30;52595;51.608;7.216;2024-02-21T14:34:41;11.91;74.55
65836;SHT30;52595;51.608;7.216;2024-02-21T14:37:07;11.92;75.09
65836;SHT30;52595;51.608;7.216;2024-02-21T14:39:32;11.92;74.80
65836;SHT30;52595;51.608;7.216;2024-02-21T14:42:00;11.95;75.04
65836;SHT30;52595;51.608;7.216;2024-02-21T14:44:25;11.89;74.73
65836;SHT30;52595;51.608;7.216;2024-02-21T14:46:51;11.85;74.80
65836;SHT30;52595;51.608;7.216;2024-02-21T14:49:16;11.68;75.29
65836;SHT30;52595;51.608;7.216;2024-02-21T14:51:42;11.70;75.95
65836;SHT30;52595;51.608;7.216;2024-02-21T14:54:07;11.70;75.42
65836;SHT30;52595;51.608;7.216;2024-02-21T14:56:33;11.63;75.49
65836;SHT30;52595;51.608;7.216;2024-02-21T14:58:59;11.63;75.26
65836;SHT30;52595;51.608;7.216;2024-02-21T15:01:24;11.65;75.65
65836;SHT30;52595;51.608;7.216;2024-02-21T15:03:49;11.48;75.46
65836;SHT30;52595;51.608;7.216;2024-02-21T15:06:16;11.53;76.09
65836;SHT30;52595;51.608;7.216;2024-02-21T15:08:42;11.51;75.22
65836;SHT30;52595;51.608;7.216;2024-02-21T15:11:07;11.58;75.27
65836;SHT30;52595;51.608;7.216;2024-02-21T15:13:33;11.53;75.11
65836;SHT30;52595;51.608;7.216;2024-02-21T15:15:58;11.48;75.49
65836;SHT30;52595;51.608;7.216;2024-02-21T15:18:23;11.40;75.59
65836;SHT30;52595;51.608;7.216;2024-02-21T15:20:49;11.44;75.69
65836;SHT30;52595;51.608;7.216;2024-02-21T15:23:14;11.34;75.96
65836;SHT30;52595;51.608;7.216;2024-02-21T15:25:40;11.28;75.85
65836;SHT30;52595;51.608;7.216;2024-02-21T15:28:06;11.26;75.59
65836;SHT30;52595;51.608;7.216;2024-02-21T15:30:32;11.26;75.99
65836;SHT30;52595;51.608;7.216;2024-02-21T15:32:58;11.26;75.75
65836;SHT30;52595;51.608;7.216;2024-02-21T15:35:27;11.24;76.46
65836;SHT30;52595;51.608;7.216;2024-02-21T15:37:53;11.20;76.38
65836;SHT30;52595;51.608;7.216;2024-02-21T15:40:21;11.20;75.99
65836;SHT30;52595;51.608;7.216;2024-02-21T15:42:46;11.14;76.45